createdAt,value
2023-05-03T00:01:09.937Z,99.90
2023-05-03T00:03:40.854Z,99.90
2023-05-03T00:06:16.762Z,99.90
2023-05-03T00:08:44.891Z,99.90
2023-05-03T00:11:14.395Z,99.90
2023-05-03T00:13:44.884Z,99.90
2023-05-03T00:16:14.007Z,99.90
2023-05-03T00:18:49.305Z,99.90
2023-05-03T00:21:17.732Z,99.90
2023-05-03T00:23:54.892Z,99.90
2023-05-03T00:26:24.312Z,99.90
2023-05-03T00:29:02.543Z,99.90
2023-05-03T00:31:32.743Z,99.90
2023-05-03T00:34:01.119Z,99.90
2023-05-03T00:36:29.166Z,99.90
2023-05-03T00:38:57.163Z,99.90
2023-05-03T00:41:26.724Z,99.90
2023-05-03T00:43:54.688Z,99.90
2023-05-03T00:46:22.797Z,99.90
2023-05-03T00:48:51.829Z,99.90
2023-05-03T00:51:32.032Z,99.90
2023-05-03T00:54:00.074Z,99.90
2023-05-03T00:56:32.951Z,99.90
2023-05-03T00:59:18.636Z,99.90
2023-05-03T01:01:50.816Z,99.90
2023-05-03T01:04:19.730Z,99.90
2023-05-03T01:06:55.580Z,99.90
2023-05-03T01:09:33.204Z,99.90
2023-05-03T01:12:16.141Z,99.90
2023-05-03T01:14:54.266Z,99.90
2023-05-03T01:17:31.182Z,99.90
2023-05-03T01:20:06.059Z,99.90
2023-05-03T01:22:43.619Z,99.90
2023-05-03T01:25:14.386Z,99.90
2023-05-03T01:27:55.070Z,99.90
2023-05-03T01:30:34.147Z,99.90
2023-05-03T01:33:11.691Z,99.90
2023-05-03T01:35:45.594Z,99.90
2023-05-03T01:38:28.352Z,99.90
2023-05-03T01:41:02.222Z,99.90
2023-05-03T01:43:35.221Z,99.90
2023-05-03T01:46:12.313Z,99.90
2023-05-03T01:48:40.378Z,99.90
2023-05-03T01:51:08.400Z,99.90
2023-05-03T01:53:37.617Z,99.90
2023-05-03T01:56:08.465Z,99.90
2023-05-03T01:58:45.780Z,99.90
2023-05-03T02:01:20.750Z,99.90
2023-05-03T02:03:51.192Z,99.90
2023-05-03T02:06:19.298Z,99.90
2023-05-03T02:08:47.329Z,99.90
2023-05-03T02:11:16.723Z,99.90
2023-05-03T02:13:44.714Z,99.90
2023-05-03T02:16:12.699Z,99.90
2023-05-03T02:18:41.872Z,99.90
2023-05-03T02:21:10.446Z,99.90
2023-05-03T02:23:38.426Z,99.90
2023-05-03T02:26:06.662Z,99.90
2023-05-03T02:28:56.485Z,99.90
2023-05-03T02:31:24.588Z,99.90
2023-05-03T02:33:52.847Z,99.90
2023-05-03T02:36:21.896Z,99.90
2023-05-03T02:38:50.013Z,99.90
2023-05-03T02:41:18.005Z,99.90
2023-05-03T02:43:46.090Z,99.90
2023-05-03T02:46:15.708Z,99.90
2023-05-03T02:48:45.057Z,99.90
2023-05-03T02:51:13.040Z,99.90
2023-05-03T02:53:41.050Z,99.90
2023-05-03T02:56:09.822Z,99.90
2023-05-03T02:58:38.061Z,99.90
2023-05-03T03:01:06.428Z,99.90
2023-05-03T03:03:36.306Z,99.90
2023-05-03T03:06:04.503Z,99.90
2023-05-03T03:08:32.659Z,99.90
2023-05-03T03:11:03.822Z,99.90
2023-05-03T03:13:32.886Z,99.90
2023-05-03T03:16:01.219Z,99.90
2023-05-03T03:18:29.238Z,99.90
2023-05-03T03:21:05.381Z,99.90
2023-05-03T03:23:40.690Z,99.90
2023-05-03T03:26:08.690Z,99.90
2023-05-03T03:28:50.077Z,99.90
2023-05-03T03:31:23.639Z,99.90
2023-05-03T03:33:51.663Z,99.90
2023-05-03T03:36:38.069Z,99.90
2023-05-03T03:39:07.359Z,99.90
2023-05-03T03:41:35.670Z,99.90
2023-05-03T03:44:10.961Z,99.90
2023-05-03T03:46:53.718Z,99.90
2023-05-03T03:49:21.751Z,99.90
2023-05-03T03:51:51.241Z,99.90
2023-05-03T03:54:19.316Z,99.90
2023-05-03T03:56:47.424Z,99.90
2023-05-03T03:59:15.588Z,99.90
2023-05-03T04:01:43.616Z,99.90
2023-05-03T04:04:18.067Z,99.90
2023-05-03T04:06:47.785Z,99.90
2023-05-03T04:09:18.103Z,99.90
2023-05-03T04:12:02.665Z,99.90
2023-05-03T04:14:30.829Z,99.90
2023-05-03T04:16:59.096Z,99.90
2023-05-03T04:19:27.441Z,99.90
2023-05-03T04:22:08.978Z,99.90
2023-05-03T04:24:39.720Z,99.90
2023-05-03T04:27:08.631Z,99.90
2023-05-03T04:29:39.035Z,99.90
2023-05-03T04:32:07.801Z,99.90
2023-05-03T04:34:42.370Z,99.90
2023-05-03T04:37:10.814Z,99.90
2023-05-03T04:39:40.247Z,99.90
2023-05-03T04:42:08.927Z,99.90
2023-05-03T04:44:36.920Z,99.90
2023-05-03T04:47:19.119Z,99.90
2023-05-03T04:49:49.219Z,99.90
2023-05-03T04:52:20.514Z,99.90
2023-05-03T04:54:51.688Z,99.90
2023-05-03T04:57:22.839Z,99.90
2023-05-03T04:59:51.081Z,99.90
2023-05-03T05:02:21.619Z,99.90
2023-05-03T05:04:49.889Z,99.90
2023-05-03T05:07:17.993Z,99.90
2023-05-03T05:09:47.249Z,99.90
2023-05-03T05:12:16.771Z,99.90
2023-05-03T05:14:44.973Z,99.90
2023-05-03T05:17:21.495Z,99.90
2023-05-03T05:19:52.467Z,99.90
2023-05-03T05:22:21.015Z,99.90
2023-05-03T05:24:51.112Z,99.90
2023-05-03T05:27:32.787Z,99.90
2023-05-03T05:30:02.377Z,99.90
2023-05-03T05:32:33.497Z,99.90
2023-05-03T05:35:25.385Z,99.90
2023-05-03T05:38:00.134Z,99.90
2023-05-03T05:40:29.163Z,99.90
2023-05-03T05:43:04.691Z,99.90
2023-05-03T05:45:34.451Z,99.90
2023-05-03T05:48:09.279Z,99.90
2023-05-03T05:50:49.639Z,99.90
2023-05-03T05:53:17.772Z,99.90
2023-05-03T05:55:54.408Z,99.90
2023-05-03T05:58:32.844Z,99.90
2023-05-03T06:01:24.787Z,99.90
2023-05-03T06:03:59.350Z,99.90
2023-05-03T06:06:38.525Z,99.90
2023-05-03T06:09:23.597Z,99.90
2023-05-03T06:11:59.547Z,99.90
2023-05-03T06:14:40.623Z,99.90
2023-05-03T06:17:12.158Z,99.90
2023-05-03T06:19:40.341Z,99.90
2023-05-03T06:22:08.369Z,99.90
2023-05-03T06:24:36.301Z,99.90
2023-05-03T06:27:04.462Z,99.90
2023-05-03T06:29:44.341Z,99.90
2023-05-03T06:32:12.461Z,99.90
2023-05-03T06:34:40.470Z,99.90
2023-05-03T06:37:08.489Z,99.90
2023-05-03T06:39:36.507Z,99.90
2023-05-03T06:42:04.519Z,99.90
2023-05-03T06:44:33.709Z,99.90
2023-05-03T06:47:03.186Z,99.90
2023-05-03T06:49:31.261Z,99.90
2023-05-03T06:51:59.233Z,99.90
2023-05-03T06:54:27.561Z,99.90
2023-05-03T06:56:55.545Z,99.90
2023-05-03T06:59:23.502Z,99.90
2023-05-03T07:01:51.778Z,99.90
2023-05-03T07:04:21.538Z,99.90
2023-05-03T07:09:35.423Z,99.90
2023-05-03T07:12:10.516Z,99.90
2023-05-03T07:14:39.337Z,99.90
2023-05-03T07:17:07.528Z,99.90
2023-05-03T07:19:37.918Z,99.90
2023-05-03T07:22:06.002Z,99.90
2023-05-03T07:24:34.042Z,99.90
2023-05-03T07:27:02.162Z,99.90
2023-05-03T07:29:30.505Z,99.90
2023-05-03T07:31:59.073Z,99.90
2023-05-03T07:34:27.313Z,99.90
2023-05-03T07:36:56.832Z,99.90
2023-05-03T07:39:24.918Z,99.90
2023-05-03T07:41:53.260Z,99.90
2023-05-03T07:44:21.350Z,99.90
2023-05-03T07:46:49.404Z,99.90
2023-05-03T07:49:17.412Z,99.90
2023-05-03T07:51:45.411Z,99.90
2023-05-03T07:54:14.801Z,99.90
2023-05-03T07:56:42.804Z,99.90
2023-05-03T07:59:10.874Z,99.90
2023-05-03T08:01:39.147Z,99.90
2023-05-03T08:04:07.974Z,99.90
2023-05-03T08:06:38.508Z,99.90
2023-05-03T08:09:06.711Z,99.90
2023-05-03T08:11:36.752Z,99.90
2023-05-03T08:14:04.732Z,99.90
2023-05-03T08:16:33.007Z,99.90
2023-05-03T08:19:01.113Z,99.90
2023-05-03T08:21:30.314Z,99.90
2023-05-03T08:23:58.406Z,99.90
2023-05-03T08:26:28.590Z,99.90
2023-05-03T08:28:58.033Z,99.90
2023-05-03T08:31:27.010Z,99.90
2023-05-03T08:33:55.060Z,99.90
2023-05-03T08:36:23.108Z,99.90
2023-05-03T08:38:51.492Z,99.90
2023-05-03T08:41:24.288Z,99.90
2023-05-03T08:43:55.074Z,99.90
2023-05-03T08:46:25.709Z,99.90
2023-05-03T08:48:55.022Z,99.90
2023-05-03T08:51:24.425Z,99.90
2023-05-03T08:53:53.660Z,99.90
2023-05-03T08:56:30.211Z,99.90
2023-05-03T08:59:04.864Z,99.90
2023-05-03T09:01:34.621Z,99.90
2023-05-03T09:04:05.294Z,99.90
2023-05-03T09:06:36.821Z,99.90
2023-05-03T09:09:07.496Z,99.90
2023-05-03T09:11:36.737Z,99.90
2023-05-03T09:14:12.160Z,99.90
2023-05-03T09:16:43.215Z,99.90
2023-05-03T09:19:12.709Z,99.90
2023-05-03T09:21:41.311Z,99.90
2023-05-03T09:24:16.647Z,99.90
2023-05-03T09:26:45.669Z,99.90
2023-05-03T09:29:29.183Z,99.90
2023-05-03T09:32:16.120Z,99.90
2023-05-03T09:34:55.468Z,95.80
2023-05-03T09:37:41.461Z,95.60
2023-05-03T09:40:20.514Z,98.90
2023-05-03T09:45:51.981Z,94.30
2023-05-03T09:48:25.728Z,99.90
2023-05-03T09:50:59.312Z,99.30
2023-05-03T09:53:44.245Z,93.30
2023-05-03T09:56:21.225Z,96.30
2023-05-03T09:58:57.234Z,94.20
2023-05-03T10:01:36.878Z,91.00
2023-05-03T10:04:25.796Z,91.50
2023-05-03T10:07:20.593Z,91.60
2023-05-03T10:10:14.583Z,89.80
2023-05-03T10:13:01.867Z,88.20
2023-05-03T10:15:43.974Z,90.60
2023-05-03T10:18:31.901Z,86.40
2023-05-03T10:21:16.591Z,77.90
2023-05-03T10:27:20.014Z,76.30
2023-05-03T10:29:54.894Z,73.70
2023-05-03T10:32:43.446Z,74.10
2023-05-03T10:35:17.801Z,66.20
2023-05-03T10:37:54.380Z,75.80
2023-05-03T10:40:33.872Z,78.20
2023-05-03T10:43:13.463Z,62.90
2023-05-03T10:45:54.841Z,67.80
2023-05-03T10:48:30.462Z,69.60
2023-05-03T10:51:39.841Z,69.30
2023-05-03T10:54:14.619Z,67.30
2023-05-03T10:57:03.073Z,67.30
2023-05-03T10:59:54.124Z,66.10
2023-05-03T11:02:38.210Z,59.40
2023-05-03T11:05:20.273Z,61.20
2023-05-03T11:07:57.656Z,58.60
2023-05-03T11:10:34.359Z,63.20
2023-05-03T11:13:16.709Z,64.40
2023-05-03T11:15:57.716Z,60.40
2023-05-03T11:18:35.994Z,60.70
2023-05-03T11:21:13.076Z,57.80
2023-05-03T11:23:51.631Z,57.90
2023-05-03T11:26:28.912Z,57.50
2023-05-03T11:29:08.524Z,57.70
2023-05-03T11:31:55.249Z,55.10
2023-05-03T11:34:35.577Z,58.00
2023-05-03T11:37:18.149Z,53.50
2023-05-03T11:39:57.174Z,60.70
2023-05-03T11:42:32.457Z,57.10
2023-05-03T11:45:19.424Z,54.20
2023-05-03T11:47:55.897Z,54.10
2023-05-03T11:51:09.246Z,55.30
2023-05-03T11:53:48.732Z,54.40
2023-05-03T11:56:25.907Z,55.40
2023-05-03T11:59:05.501Z,53.50
2023-05-03T12:01:49.605Z,54.70
2023-05-03T12:04:37.923Z,55.60
2023-05-03T12:07:19.603Z,55.70
2023-05-03T12:10:13.837Z,55.80
2023-05-03T12:13:05.238Z,55.90
2023-05-03T12:18:34.560Z,54.30
2023-05-03T12:24:24.705Z,55.70
2023-05-03T12:27:03.198Z,52.30
2023-05-03T12:29:42.599Z,52.90
2023-05-03T12:32:29.949Z,53.50
2023-05-03T12:35:14.513Z,52.90
2023-05-03T12:38:02.488Z,53.30
2023-05-03T12:40:40.853Z,51.20
2023-05-03T12:43:22.058Z,52.50
2023-05-03T12:46:11.915Z,50.20
2023-05-03T12:48:54.287Z,52.80
2023-05-03T12:51:26.252Z,53.90
2023-05-03T12:54:19.391Z,51.40
2023-05-03T12:56:55.915Z,51.30
2023-05-03T13:00:02.145Z,51.30
2023-05-03T13:08:11.287Z,52.50
2023-05-03T13:10:49.342Z,53.50
2023-05-03T13:13:32.925Z,50.50
2023-05-03T13:16:11.460Z,50.20
2023-05-03T13:18:49.493Z,49.40
2023-05-03T13:21:22.711Z,50.70
2023-05-03T13:23:56.871Z,50.00
2023-05-03T13:26:32.961Z,49.30
2023-05-03T13:29:13.273Z,49.60
2023-05-03T13:31:47.607Z,49.80
2023-05-03T13:34:21.760Z,47.10
2023-05-03T13:37:05.952Z,46.90
2023-05-03T13:39:36.488Z,45.70
2023-05-03T13:42:16.422Z,46.30
2023-05-03T13:44:54.019Z,46.40
2023-05-03T13:47:47.376Z,46.20
2023-05-03T13:50:32.669Z,45.70
2023-05-03T13:53:03.186Z,49.00
2023-05-03T13:55:34.677Z,47.80
2023-05-03T13:58:11.511Z,46.40
2023-05-03T14:00:44.312Z,47.20
2023-05-03T14:03:26.386Z,46.20
2023-05-03T14:06:11.793Z,45.90
2023-05-03T14:09:07.805Z,47.90
2023-05-03T14:11:46.108Z,45.30
2023-05-03T14:14:24.895Z,45.30
2023-05-03T14:17:17.253Z,45.50
2023-05-03T14:20:28.670Z,42.80
2023-05-03T14:23:11.623Z,42.60
2023-05-03T14:25:50.840Z,44.20
2023-05-03T14:28:33.254Z,47.50
2023-05-03T14:31:17.506Z,43.20
2023-05-03T14:33:55.419Z,42.50
2023-05-03T14:36:40.860Z,41.60
2023-05-03T14:39:20.619Z,41.40
2023-05-03T14:41:56.584Z,40.00
2023-05-03T14:44:42.972Z,40.70
2023-05-03T14:47:32.918Z,40.20
2023-05-03T14:50:04.750Z,39.70
2023-05-03T14:52:47.021Z,38.50
2023-05-03T14:55:18.638Z,39.10
2023-05-03T14:57:55.757Z,40.50
2023-05-03T15:00:37.277Z,41.70
2023-05-03T15:03:14.201Z,40.60
2023-05-03T15:05:58.983Z,40.30
2023-05-03T15:08:34.540Z,38.60
2023-05-03T15:11:09.539Z,40.30
2023-05-03T15:13:47.091Z,39.50
2023-05-03T15:16:23.772Z,39.70
2023-05-03T15:19:00.385Z,40.50
2023-05-03T15:21:29.712Z,38.40
2023-05-03T15:24:16.468Z,40.30
2023-05-03T15:26:57.289Z,40.00
2023-05-03T15:29:47.596Z,39.60
2023-05-03T15:32:23.749Z,38.20
2023-05-03T15:35:03.378Z,39.40
2023-05-03T15:37:47.839Z,40.30
2023-05-03T15:40:32.603Z,37.90
2023-05-03T15:43:11.728Z,38.00
2023-05-03T15:46:00.303Z,38.70
2023-05-03T15:49:13.067Z,37.90
2023-05-03T15:52:02.607Z,37.80
2023-05-03T15:54:57.623Z,36.80
2023-05-03T15:57:33.172Z,37.20
2023-05-03T16:00:14.927Z,36.30
2023-05-03T16:02:52.702Z,37.40
2023-05-03T16:05:31.393Z,36.90
2023-05-03T16:08:06.295Z,38.00
2023-05-03T16:10:58.320Z,37.20
2023-05-03T16:14:14.206Z,37.60
2023-05-03T16:16:53.232Z,38.30
2023-05-03T16:19:34.517Z,38.10
2023-05-03T16:22:25.741Z,40.00
2023-05-03T16:24:59.952Z,39.10
2023-05-03T16:27:42.655Z,38.70
2023-05-03T16:30:13.589Z,40.00
2023-05-03T16:33:00.636Z,38.70
2023-05-03T16:35:49.379Z,38.50
2023-05-03T16:38:21.953Z,39.50
2023-05-03T16:40:52.562Z,40.50
2023-05-03T16:43:30.276Z,40.60
2023-05-03T16:46:07.609Z,41.70
2023-05-03T16:48:47.725Z,41.90
2023-05-03T16:51:29.800Z,43.20
2023-05-03T16:54:03.877Z,42.10
2023-05-03T16:56:40.300Z,42.40
2023-05-03T16:59:15.017Z,44.00
2023-05-03T17:01:49.123Z,44.30
2023-05-03T17:04:30.318Z,44.10
2023-05-03T17:07:11.500Z,45.60
2023-05-03T17:09:54.423Z,46.50
2023-05-03T17:12:29.450Z,47.20
2023-05-03T17:14:58.550Z,49.80
2023-05-03T17:17:28.284Z,50.70
2023-05-03T17:20:13.030Z,51.90
2023-05-03T17:23:10.890Z,54.40
2023-05-03T17:25:43.016Z,54.20
2023-05-03T17:28:22.278Z,55.00
2023-05-03T17:31:01.728Z,56.10
2023-05-03T17:33:36.668Z,57.40
2023-05-03T17:36:14.672Z,59.50
2023-05-03T17:38:59.323Z,62.10
2023-05-03T17:41:34.878Z,65.90
2023-05-03T17:44:22.598Z,69.40
2023-05-03T17:47:03.169Z,71.40
2023-05-03T17:49:56.082Z,76.60
2023-05-03T17:52:26.518Z,77.00
2023-05-03T17:55:15.226Z,77.50
2023-05-03T17:57:49.740Z,78.40
2023-05-03T18:00:29.567Z,79.80
2023-05-03T18:03:03.661Z,82.30
2023-05-03T18:05:47.097Z,78.60
2023-05-03T18:08:40.069Z,77.50
2023-05-03T18:11:16.332Z,74.60
2023-05-03T18:13:55.377Z,73.20
2023-05-03T18:16:32.696Z,79.00
2023-05-03T18:19:34.931Z,78.00
2023-05-03T18:22:28.476Z,78.20
2023-05-03T18:25:15.929Z,81.90
2023-05-03T18:27:57.574Z,84.00
2023-05-03T18:30:42.383Z,85.00
2023-05-03T18:33:34.421Z,89.40
2023-05-03T18:36:11.996Z,90.90
2023-05-03T18:38:59.144Z,93.00
2023-05-03T18:41:37.539Z,95.00
2023-05-03T18:44:24.681Z,98.20
2023-05-03T18:47:08.083Z,99.90
2023-05-03T18:49:53.361Z,99.90
2023-05-03T18:55:20.618Z,99.90
2023-05-03T18:57:56.789Z,99.90
2023-05-03T19:00:38.072Z,99.90
2023-05-03T19:03:11.717Z,99.90
2023-05-03T19:05:40.042Z,99.90
2023-05-03T19:08:08.660Z,99.90
2023-05-03T19:10:36.855Z,99.90
2023-05-03T19:13:04.979Z,99.90
2023-05-03T19:15:34.709Z,99.90
2023-05-03T19:18:05.094Z,99.90
2023-05-03T19:20:35.236Z,99.90
2023-05-03T19:23:04.612Z,99.90
2023-05-03T19:25:32.682Z,99.90
2023-05-03T19:28:01.178Z,99.90
2023-05-03T19:30:29.295Z,99.90
2023-05-03T19:33:07.764Z,99.90
2023-05-03T19:35:39.442Z,99.90
2023-05-03T19:38:10.423Z,99.90
2023-05-03T19:40:39.018Z,99.90
2023-05-03T19:43:07.525Z,99.90
2023-05-03T19:45:35.527Z,99.90
2023-05-03T19:48:04.838Z,99.90
2023-05-03T19:50:36.698Z,99.90
2023-05-03T19:53:04.978Z,99.90
2023-05-03T19:55:40.299Z,99.90
2023-05-03T19:58:08.441Z,99.90
2023-05-03T20:00:41.607Z,99.90
2023-05-03T20:03:09.754Z,99.90
2023-05-03T20:05:39.179Z,99.90
2023-05-03T20:08:07.174Z,99.90
2023-05-03T20:10:36.431Z,99.90
2023-05-03T20:13:04.919Z,99.90
2023-05-03T20:15:40.349Z,99.90
2023-05-03T20:18:09.099Z,99.90
2023-05-03T20:20:39.086Z,99.90
2023-05-03T20:23:09.159Z,99.90
2023-05-03T20:25:44.344Z,99.90
2023-05-03T20:28:14.986Z,99.90
2023-05-03T20:30:43.606Z,99.90
2023-05-03T20:33:12.705Z,99.90
2023-05-03T20:35:51.199Z,99.90
2023-05-03T20:38:19.355Z,99.90
2023-05-03T20:40:49.968Z,99.90
2023-05-03T20:43:24.241Z,99.90
2023-05-03T20:45:53.460Z,99.90
2023-05-03T20:48:21.694Z,99.90
2023-05-03T20:51:00.872Z,99.90
2023-05-03T20:53:29.518Z,99.90
2023-05-03T20:56:05.413Z,99.90
2023-05-03T20:58:33.571Z,99.90
2023-05-03T21:01:17.581Z,99.90
2023-05-03T21:03:45.792Z,99.90
2023-05-03T21:06:16.371Z,99.90
2023-05-03T21:08:48.617Z,99.90
2023-05-03T21:11:18.841Z,99.90
2023-05-03T21:13:46.903Z,99.90
2023-05-03T21:16:14.984Z,99.90
2023-05-03T21:18:43.154Z,99.90
2023-05-03T21:21:11.242Z,99.90
2023-05-03T21:23:42.890Z,99.90
2023-05-03T21:26:11.124Z,99.90
2023-05-03T21:28:39.214Z,99.90
2023-05-03T21:31:14.349Z,99.90
2023-05-03T21:33:43.415Z,99.90
2023-05-03T21:36:14.730Z,99.90
2023-05-03T21:38:45.157Z,99.90
2023-05-03T21:41:23.561Z,99.90
2023-05-03T21:43:51.600Z,99.90
2023-05-03T21:46:19.764Z,99.90
2023-05-03T21:48:47.864Z,99.90
2023-05-03T21:51:24.996Z,99.90
2023-05-03T21:54:02.394Z,99.90
2023-05-03T21:56:31.622Z,99.90
2023-05-03T21:58:59.686Z,99.90
2023-05-03T22:01:28.465Z,99.90
2023-05-03T22:03:56.824Z,99.90
2023-05-03T22:06:48.805Z,99.90
2023-05-03T22:09:18.398Z,99.90
2023-05-03T22:11:46.407Z,99.90
2023-05-03T22:14:15.304Z,99.90
2023-05-03T22:16:45.409Z,99.90
2023-05-03T22:19:14.292Z,99.90
2023-05-03T22:21:49.371Z,99.90
2023-05-03T22:24:18.791Z,99.90
2023-05-03T22:26:49.090Z,99.90
2023-05-03T22:29:17.721Z,99.90
2023-05-03T22:31:46.097Z,99.90
2023-05-03T22:34:14.125Z,99.90
2023-05-03T22:36:42.187Z,99.90
2023-05-03T22:39:10.920Z,99.90
2023-05-03T22:41:40.396Z,99.90
2023-05-03T22:44:09.533Z,99.90
2023-05-03T22:46:37.505Z,99.90
2023-05-03T22:49:29.530Z,99.90
2023-05-03T22:51:57.484Z,99.90
2023-05-03T22:54:27.120Z,99.90
2023-05-03T22:56:58.493Z,99.90
2023-05-03T22:59:29.735Z,99.90
2023-05-03T23:01:57.781Z,99.90
2023-05-03T23:04:26.487Z,99.90
2023-05-03T23:06:54.827Z,99.90
2023-05-03T23:09:22.877Z,99.90
2023-05-03T23:11:52.291Z,99.90
2023-05-03T23:14:30.818Z,99.90
2023-05-03T23:17:07.084Z,99.90
2023-05-03T23:19:38.745Z,99.90
2023-05-03T23:22:10.128Z,99.90
2023-05-03T23:24:39.538Z,99.90
2023-05-03T23:27:07.857Z,99.90
2023-05-03T23:29:37.565Z,99.90
2023-05-03T23:32:13.357Z,99.90
2023-05-03T23:34:43.871Z,99.90
2023-05-03T23:37:11.969Z,99.90
2023-05-03T23:39:44.389Z,99.90
2023-05-03T23:42:12.970Z,99.90
2023-05-03T23:44:54.517Z,99.90
2023-05-03T23:47:23.691Z,99.90
2023-05-03T23:49:53.814Z,99.90
2023-05-03T23:52:21.827Z,99.90
2023-05-03T23:54:49.931Z,99.90
2023-05-03T23:57:18.005Z,99.90
2023-05-03T23:59:47.363Z,99.90
